Time;durP1;ratioP1;P1;durP2;ratioP2;P2;SDS_P1;SDS_P2;PMS_P1;PMS_P2;Temp;Humidity;BMP_temperature;BMP_pressure;BME280_temperature;BME280_humidity;BME280_pressure;Samples;Min_cycle;Max_cycle;Signal;HPM_P1;HPM_P2
2021/04/08 00:00:32;;;;;;;9.33;4.22;;;;;;;18.45;36.23;155975.95;1772909;81;21589;-78
2021/04/08 00:03:04;;;;;;;13.32;5.10;;;;;;;18.44;36.16;155973.31;1773190;81;22008;-78
2021/04/08 00:05:37;;;;;;;17.00;5.53;;;;;;;18.46;36.16;155978.55;1773020;81;21205;-78
2021/04/08 00:08:10;;;;;;;12.00;4.85;;;;;;;18.44;36.16;155973.31;1772901;81;21347;-78
2021/04/08 00:10:44;;;;;;;10.15;5.05;;;;;;;18.41;36.04;155964.03;1772881;81;21253;-78
2021/04/08 00:13:17;;;;;;;7.33;4.10;;;;;;;18.38;36.07;155957.44;1772998;81;21182;-78
2021/04/08 00:15:49;;;;;;;11.68;5.00;;;;;;;18.39;36.08;155960.08;1773027;81;21193;-78
2021/04/08 00:18:21;;;;;;;12.43;6.28;;;;;;;18.41;36.02;155965.37;1772991;81;21240;-78
2021/04/08 00:20:54;;;;;;;10.25;5.75;;;;;;;18.47;35.83;155981.19;1772899;81;21255;-78
2021/04/08 00:23:26;;;;;;;6.30;3.60;;;;;;;18.49;35.81;155985.19;1772921;81;21194;-78
2021/04/08 00:25:58;;;;;;;6.10;3.30;;;;;;;18.49;35.86;155986.48;1785748;79;22233;-78
2021/04/08 00:28:31;;;;;;;6.60;3.55;;;;;;;18.54;35.78;155999.70;1791544;80;21187;-78
2021/04/08 00:31:03;;;;;;;6.72;3.70;;;;;;;18.51;35.72;155990.47;1791447;80;21857;-78
2021/04/08 00:33:35;;;;;;;9.83;4.00;;;;;;;18.48;35.76;155982.53;1791491;80;22243;-78
2021/04/08 00:36:09;;;;;;;7.97;3.62;;;;;;;18.73;35.47;156049.84;1791486;80;21198;-78
2021/04/08 00:38:41;;;;;;;9.60;4.35;;;;;;;18.90;35.25;156094.77;1791361;80;21242;-78
2021/04/08 00:41:14;;;;;;;9.85;4.03;;;;;;;18.80;35.18;156068.38;1791517;80;21252;-78
2021/04/08 00:43:46;;;;;;;10.82;4.60;;;;;;;18.58;35.61;156010.23;1791506;80;21692;-78
2021/04/08 00:46:18;;;;;;;7.03;3.90;;;;;;;18.74;35.55;156052.50;1791485;80;21321;-78
2021/04/08 00:48:50;;;;;;;8.38;4.15;;;;;;;19.09;34.95;156146.28;1791386;80;21388;-78
2021/04/08 00:51:23;;;;;;;8.33;3.58;;;;;;;19.04;34.91;156133.05;1791344;80;21333;-78
2021/04/08 00:53:56;;;;;;;7.35;3.98;;;;;;;19.11;34.80;156151.58;1791393;80;21344;-78
2021/04/08 00:56:28;;;;;;;8.13;3.65;;;;;;;19.10;34.85;156147.58;1791455;80;21336;-78
2021/04/08 00:59:00;;;;;;;9.45;4.22;;;;;;;19.14;34.85;156159.52;1791558;80;21167;-78
2021/04/08 01:01:33;;;;;;;6.17;3.40;;;;;;;19.16;34.73;156163.45;1791470;80;21836;-76
2021/04/08 01:04:05;;;;;;;5.33;3.30;;;;;;;19.11;34.71;156150.28;1791483;80;21332;-76
2021/04/08 01:06:38;;;;;;;8.55;4.20;;;;;;;19.08;34.81;156142.28;1791349;80;21353;-76
2021/04/08 01:09:10;;;;;;;5.85;4.37;;;;;;;19.06;34.74;156137.00;1791462;80;21820;-76
2021/04/08 01:11:43;;;;;;;8.08;3.70;;;;;;;18.99;34.86;156117.19;1791285;79;21681;-76
2021/04/08 01:14:16;;;;;;;7.33;3.83;;;;;;;19.04;34.79;156133.05;1791450;80;21729;-76
2021/04/08 01:17:08;;;;;;;8.33;4.40;;;;;;;19.00;34.78;156119.81;1791405;80;21345;-77
2021/04/08 01:20:29;;;;;;;6.90;4.28;;;;;;;18.95;34.79;156106.64;1790772;80;21332;-76
2021/04/08 01:23:56;;;;;;;9.20;3.55;;;;;;;18.88;34.86;156088.13;1791626;80;21207;-81
2021/04/08 01:26:33;;;;;;;8.08;3.25;;;;;;;18.92;34.78;156098.70;1783724;80;21406;-80
2021/04/08 01:29:29;;;;;;;5.45;3.40;;;;;;;18.94;34.82;156104.00;1772967;81;21197;-79
2021/04/08 01:32:04;;;;;;;8.80;4.33;;;;;;;18.92;34.89;156098.70;1772870;81;21979;-81
2021/04/08 01:34:39;;;;;;;8.58;4.08;;;;;;;18.91;34.83;156096.06;1773055;81;21521;-80
2021/04/08 01:37:11;;;;;;;6.97;4.22;;;;;;;18.95;34.76;156107.94;1772961;81;21198;-80
2021/04/08 01:39:43;;;;;;;8.63;3.90;;;;;;;18.95;34.77;156106.64;1772972;81;21190;-80
2021/04/08 01:42:18;;;;;;;6.60;4.05;;;;;;;18.89;34.84;156092.12;1773011;81;22150;-80
2021/04/08 01:44:50;;;;;;;5.78;4.12;;;;;;;18.90;34.78;156093.42;1773168;81;21198;-79
2021/04/08 01:47:24;;;;;;;7.75;4.50;;;;;;;18.93;34.79;156101.36;1772968;81;21340;-80
2021/04/08 01:49:57;;;;;;;8.38;4.50;;;;;;;18.94;34.88;156105.30;1773087;81;21249;-81
2021/04/08 01:52:29;;;;;;;9.50;4.28;;;;;;;18.67;35.10;156032.69;1773051;81;21450;-81
2021/04/08 01:55:01;;;;;;;9.00;4.90;;;;;;;18.96;34.89;156109.30;1773019;81;21245;-81
2021/04/08 01:57:34;;;;;;;7.03;4.40;;;;;;;18.90;34.97;156093.42;1772992;81;21180;-82
2021/04/08 02:00:10;;;;;;;8.15;4.25;;;;;;;18.90;34.89;156094.77;1772992;81;21189;-82
2021/04/08 02:02:45;;;;;;;8.48;4.95;;;;;;;18.90;34.76;156094.77;1772983;81;21220;-82
2021/04/08 02:05:18;;;;;;;8.38;4.22;;;;;;;18.86;34.76;156084.19;1772921;81;21463;-82
2021/04/08 02:07:53;;;;;;;7.80;4.33;;;;;;;18.90;34.81;156093.42;1772781;81;22136;-82
2021/04/08 02:10:27;;;;;;;7.35;4.25;;;;;;;18.89;34.80;156090.78;1772906;81;21692;-81
2021/04/08 02:13:00;;;;;;;7.28;4.25;;;;;;;18.90;34.80;156093.42;1772759;81;21395;-82
2021/04/08 02:15:32;;;;;;;6.00;3.92;;;;;;;18.86;34.92;156082.89;1772792;81;21429;-81
2021/04/08 02:18:05;;;;;;;7.67;4.62;;;;;;;18.93;34.96;156101.36;1772891;81;22022;-81
2021/04/08 02:20:37;;;;;;;7.70;4.37;;;;;;;18.97;34.81;156111.94;1772976;81;21991;-81
2021/04/08 02:23:09;;;;;;;9.40;4.30;;;;;;;18.98;34.79;156115.88;1772908;81;21209;-81
2021/04/08 02:25:42;;;;;;;7.90;4.97;;;;;;;18.99;34.81;156117.19;1772679;81;21257;-80
2021/04/08 02:28:15;;;;;;;7.97;4.50;;;;;;;18.91;34.93;156096.06;1722305;81;21708;-82
2021/04/08 02:30:50;;;;;;;8.50;4.75;;;;;;;18.82;35.14;156073.61;1762461;81;21410;-82
2021/04/08 02:33:28;;;;;;;6.62;3.77;;;;;;;19.01;34.93;156122.47;1741732;81;21216;-81
2021/04/08 02:36:01;;;;;;;7.92;4.20;;;;;;;19.00;34.76;156121.17;1762497;81;22199;-80
2021/04/08 02:38:36;;;;;;;8.65;4.08;;;;;;;18.90;34.81;156093.42;1762549;81;22170;-81
2021/04/08 02:41:09;;;;;;;13.35;4.80;;;;;;;18.92;34.88;156100.06;1762537;81;21335;-82
2021/04/08 02:43:42;;;;;;;10.58;4.47;;;;;;;18.95;34.72;156107.94;1762451;81;22191;-81
2021/04/08 02:46:16;;;;;;;9.98;5.00;;;;;;;18.84;34.92;156078.89;1762685;81;21819;-80
2021/04/08 02:48:50;;;;;;;7.67;4.58;;;;;;;18.93;34.77;156101.36;1763578;81;21204;-78
2021/04/08 02:51:26;;;;;;;9.05;4.97;;;;;;;18.92;34.72;156100.06;1762594;81;21570;-80
2021/04/08 02:54:18;;;;;;;9.85;4.83;;;;;;;18.89;34.82;156090.78;1762734;81;21209;-80
2021/04/08 02:57:01;;;;;;;9.15;5.05;;;;;;;18.87;34.77;156086.83;1762355;81;21375;-80
2021/04/08 02:59:53;;;;;;;8.10;4.90;;;;;;;18.84;34.86;156078.89;1762431;81;22101;-80
2021/04/08 03:02:29;;;;;;;8.83;4.92;;;;;;;18.80;34.92;156067.02;1762515;81;21201;-80
2021/04/08 03:05:01;;;;;;;12.15;4.87;;;;;;;18.74;34.92;156052.50;1762545;81;21343;-80
2021/04/08 03:07:49;;;;;;;7.22;4.70;;;;;;;18.63;34.93;156022.16;1762645;81;21347;-82
2021/04/08 03:10:21;;;;;;;8.30;5.00;;;;;;;18.56;35.02;156005.00;1762521;81;21466;-80
2021/04/08 03:12:55;;;;;;;8.98;5.80;;;;;;;18.46;35.09;155977.25;1762665;81;21386;-80
2021/04/08 03:15:36;;;;;;;10.23;6.10;;;;;;;18.21;35.34;155912.55;1742111;81;21378;-80
2021/04/08 03:18:13;;;;;;;10.23;5.67;;;;;;;18.36;35.24;155952.16;1762669;81;21351;-80
2021/04/08 03:20:53;;;;;;;9.38;5.85;;;;;;;18.36;35.24;155952.16;1762665;81;21264;-80
2021/04/08 03:23:26;;;;;;;12.63;5.95;;;;;;;18.34;35.11;155946.88;1762666;81;21197;-80
2021/04/08 03:25:58;;;;;;;15.18;6.78;;;;;;;17.98;35.53;155849.20;1762516;81;21327;-80
2021/04/08 03:28:30;;;;;;;12.20;6.03;;;;;;;17.90;35.62;155829.41;1771154;80;21558;-80
2021/04/08 03:31:05;;;;;;;11.15;6.47;;;;;;;17.99;35.49;155853.14;1791322;80;21903;-80
2021/04/08 03:33:37;;;;;;;12.82;6.00;;;;;;;17.86;35.70;155817.53;1791210;80;21384;-80
2021/04/08 03:36:10;;;;;;;10.75;6.28;;;;;;;18.23;35.25;155916.53;1791258;80;21194;-81
2021/04/08 03:38:43;;;;;;;10.80;5.78;;;;;;;18.14;35.37;155894.03;1791020;80;21341;-80
2021/04/08 03:41:16;;;;;;;17.77;7.25;;;;;;;18.04;35.51;155866.36;1792489;80;21280;-79
2021/04/08 03:43:52;;;;;;;12.43;6.20;;;;;;;17.99;35.48;155851.84;1792390;80;21337;-78
2021/04/08 03:46:27;;;;;;;11.80;6.17;;;;;;;17.89;35.67;155826.75;1791236;80;21376;-80
2021/04/08 03:49:03;;;;;;;12.07;6.08;;;;;;;17.86;35.73;155818.83;1791366;80;21199;-81
2021/04/08 03:51:38;;;;;;;10.08;5.97;;;;;;;17.84;35.86;155812.25;1791306;80;21269;-78
2021/04/08 03:54:14;;;;;;;11.73;6.60;;;;;;;18.01;35.62;155858.42;1791245;80;21345;-77
2021/04/08 03:56:51;;;;;;;10.65;5.95;;;;;;;18.22;35.31;155913.89;1791359;80;22189;-78
2021/04/08 03:59:28;;;;;;;8.85;5.50;;;;;;;18.01;35.68;155858.42;1792459;80;21342;-77
2021/04/08 04:02:02;;;;;;;10.75;5.87;;;;;;;17.99;35.70;155851.84;1791407;80;21734;-79
2021/04/08 04:04:35;;;;;;;13.28;7.45;;;;;;;18.00;35.71;155855.78;1792208;80;21911;-80
2021/04/08 04:07:08;;;;;;;12.53;6.95;;;;;;;18.02;35.68;155861.08;1791576;80;21789;-77
2021/04/08 04:09:43;;;;;;;13.95;6.80;;;;;;;18.02;35.71;155859.72;1791325;80;21463;-81
2021/04/08 04:12:18;;;;;;;11.38;6.97;;;;;;;18.11;35.58;155886.11;1792543;80;21335;-82
2021/04/08 04:14:54;;;;;;;14.60;7.33;;;;;;;18.23;35.48;155917.83;1792366;80;21187;-79
2021/04/08 04:17:31;;;;;;;15.55;7.85;;;;;;;18.39;35.35;155958.78;1792527;80;21307;-81
2021/04/08 04:20:09;;;;;;;13.22;7.17;;;;;;;18.38;35.35;155956.16;1792521;80;21331;-79
2021/04/08 04:22:45;;;;;;;12.25;6.67;;;;;;;18.51;35.27;155990.47;1792410;80;21396;-80
2021/04/08 04:25:20;;;;;;;19.62;7.78;;;;;;;18.57;35.18;156007.64;1792541;80;21375;-78
2021/04/08 04:27:55;;;;;;;13.50;7.65;;;;;;;18.66;35.09;156030.03;1792555;80;21346;-78
2021/04/08 04:30:30;;;;;;;12.47;6.75;;;;;;;18.40;35.60;155961.44;1789975;80;21384;-81
2021/04/08 04:33:06;;;;;;;13.13;7.00;;;;;;;18.41;35.66;155965.37;1789965;80;21416;-83
2021/04/08 04:35:54;;;;;;;10.38;5.95;;;;;;;18.82;35.18;156072.31;1790054;80;21540;-82
2021/04/08 04:38:31;;;;;;;12.13;7.20;;;;;;;18.90;35.27;156093.42;1790022;80;21317;-79
2021/04/08 04:41:07;;;;;;;13.65;7.62;;;;;;;18.90;34.80;156094.77;1788900;80;21347;-78
2021/04/08 04:43:43;;;;;;;12.70;6.47;;;;;;;18.98;35.01;156115.88;1789000;80;21364;-77
2021/04/08 04:46:20;;;;;;;10.95;5.97;;;;;;;18.99;34.89;156117.19;1789077;80;21455;-78
2021/04/08 04:49:00;;;;;;;10.48;6.25;;;;;;;19.02;34.85;156125.11;1788872;80;21315;-78
2021/04/08 04:51:38;;;;;;;14.38;6.78;;;;;;;19.10;34.88;156147.58;1785103;80;21273;-78
2021/04/08 04:54:25;;;;;;;12.55;6.30;;;;;;;19.14;34.58;156158.22;1790134;80;21329;-78
2021/04/08 04:57:23;;;;;;;12.43;6.45;;;;;;;19.29;34.71;156199.16;1789780;80;22204;-81
2021/04/08 05:00:04;;;;;;;11.35;7.05;;;;;;;19.27;34.88;156193.86;1790159;80;21346;-85
2021/04/08 05:02:37;;;;;;;10.38;6.28;;;;;;;19.40;34.59;156226.86;1789320;80;21462;-82
2021/04/08 05:05:10;;;;;;;11.53;6.30;;;;;;;19.45;34.47;156240.09;1789611;80;21332;-77
2021/04/08 05:07:42;;;;;;;9.80;6.17;;;;;;;19.51;34.61;156257.28;1789442;80;21368;-80
2021/04/08 05:10:15;;;;;;;14.10;6.83;;;;;;;19.48;34.44;156248.03;1789528;80;21349;-81
2021/04/08 05:12:47;;;;;;;11.75;6.05;;;;;;;19.49;34.45;156251.98;1789607;80;21706;-81
2021/04/08 05:15:20;;;;;;;10.08;6.35;;;;;;;19.51;34.20;156257.28;1789377;80;21532;-81
2021/04/08 05:17:54;;;;;;;9.83;5.50;;;;;;;19.57;34.43;156271.81;1787080;80;21718;-81
2021/04/08 05:24:05;;;;;;;16.00;7.20;;;;;;;19.68;34.00;156300.87;1789497;80;21285;-81
2021/04/08 05:26:37;;;;;;;12.50;6.92;;;;;;;19.74;34.23;156316.70;1789336;80;21329;-81
2021/04/08 05:29:10;;;;;;;12.20;7.15;;;;;;;19.74;33.93;156318.06;1788450;80;21344;-81
2021/04/08 05:31:42;;;;;;;14.73;7.10;;;;;;;19.83;34.00;156341.83;1794696;80;21567;-82
2021/04/08 05:34:14;;;;;;;10.55;6.80;;;;;;;19.85;34.07;156345.83;1797781;80;21894;-80
2021/04/08 05:36:47;;;;;;;11.63;7.15;;;;;;;19.93;34.26;156368.25;1796911;80;21368;-79
2021/04/08 05:39:19;;;;;;;9.88;5.90;;;;;;;19.93;34.23;156368.25;1796984;80;21336;-79
2021/04/08 05:41:52;;;;;;;11.88;6.90;;;;;;;20.04;34.43;156397.38;1796820;80;21225;-80
2021/04/08 05:44:25;;;;;;;13.32;8.48;;;;;;;20.10;34.19;156414.56;1796784;80;21438;-81
2021/04/08 05:46:57;;;;;;;8.98;6.62;;;;;;;20.22;33.97;156445.00;1796904;80;21314;-81
2021/04/08 05:49:30;;;;;;;13.18;7.97;;;;;;;20.25;33.86;156452.94;1796862;80;21210;-81
2021/04/08 05:52:09;;;;;;;14.83;7.72;;;;;;;20.29;34.18;156463.48;1796990;80;22134;-80
2021/04/08 05:54:38;;;;;;;13.90;8.20;;;;;;;20.20;34.28;156439.69;1796783;80;22148;-81
2021/04/08 05:57:10;;;;;;;13.25;7.25;;;;;;;20.42;33.77;156497.86;1796876;80;21210;-81
2021/04/08 05:59:43;;;;;;;12.88;7.35;;;;;;;20.49;33.66;156516.34;1796866;80;21205;-81
2021/04/08 06:02:15;;;;;;;13.40;7.70;;;;;;;20.57;33.85;156538.84;1796922;80;22000;-81
2021/04/08 06:04:47;;;;;;;14.05;7.37;;;;;;;20.59;33.46;156542.84;1796919;80;21198;-81
2021/04/08 06:07:20;;;;;;;11.60;7.55;;;;;;;20.55;33.87;156533.55;1796747;79;21233;-81
2021/04/08 06:09:53;;;;;;;15.75;7.72;;;;;;;20.56;33.46;156536.19;1796865;80;21202;-81
2021/04/08 06:12:26;;;;;;;12.73;7.55;;;;;;;20.74;33.61;156583.83;1797087;80;21337;-81
2021/04/08 06:14:59;;;;;;;13.90;7.17;;;;;;;20.72;33.75;156578.53;1797202;80;21178;-81
2021/04/08 06:17:31;;;;;;;12.55;7.70;;;;;;;20.84;33.62;156610.33;1797176;80;21273;-81
2021/04/08 06:20:08;;;;;;;12.63;7.12;;;;;;;20.96;33.36;156643.37;1797100;80;22008;-82
2021/04/08 06:22:42;;;;;;;13.53;7.60;;;;;;;20.89;33.25;156622.22;1797003;80;21851;-81
2021/04/08 06:25:15;;;;;;;12.82;7.40;;;;;;;20.89;33.74;156623.53;1797207;80;21531;-81
2021/04/08 06:27:47;;;;;;;10.95;7.17;;;;;;;21.00;33.15;156653.97;1797202;80;21574;-82
2021/04/08 06:30:20;;;;;;;11.08;7.70;;;;;;;21.01;33.00;156655.27;1797204;80;22159;-82
2021/04/08 06:32:53;;;;;;;13.62;7.47;;;;;;;21.17;32.92;156697.63;1790828;80;21202;-82
2021/04/08 06:35:26;;;;;;;13.60;7.58;;;;;;;21.22;33.10;156712.17;1788624;80;21344;-81
2021/04/08 06:38:00;;;;;;;11.40;7.45;;;;;;;21.28;33.10;156728.08;1788720;80;21225;-82
2021/04/08 06:40:32;;;;;;;12.33;7.08;;;;;;;21.32;33.21;156737.33;1788805;80;21333;-82
2021/04/08 06:43:04;;;;;;;11.65;6.78;;;;;;;21.38;33.19;156754.53;1788817;80;21601;-82
2021/04/08 06:45:39;;;;;;;14.23;8.03;;;;;;;21.39;33.24;156757.19;1788555;80;22214;-83
2021/04/08 06:48:29;;;;;;;11.30;7.10;;;;;;;21.44;33.02;156769.09;1788434;80;21202;-83
2021/04/08 06:51:01;;;;;;;10.85;6.87;;;;;;;21.57;33.34;156803.56;1788508;80;21411;-84
2021/04/08 06:53:34;;;;;;;15.93;8.20;;;;;;;21.65;33.59;156824.72;1788575;80;21403;-84
2021/04/08 06:56:08;;;;;;;15.58;8.40;;;;;;;21.65;34.02;156826.02;1767074;80;21206;-84
2021/04/08 06:58:41;;;;;;;15.00;8.10;;;;;;;21.80;33.55;156865.75;1788707;80;21218;-83
2021/04/08 07:01:18;;;;;;;11.97;7.10;;;;;;;21.79;33.02;156861.78;1763979;80;21210;-83
2021/04/08 07:03:51;;;;;;;12.53;8.20;;;;;;;21.74;32.76;156849.87;1788743;80;21348;-83
2021/04/08 07:06:24;;;;;;;17.20;9.35;;;;;;;21.75;33.20;156851.19;1788834;80;21506;-83
2021/04/08 07:08:57;;;;;;;16.37;8.30;;;;;;;21.63;32.84;156820.77;1788841;80;21737;-83
2021/04/08 07:11:29;;;;;;;14.28;7.58;;;;;;;21.69;33.42;156836.63;1788722;80;21350;-83
2021/04/08 07:14:02;;;;;;;12.13;7.45;;;;;;;21.90;32.70;156893.56;1788755;80;21749;-83
2021/04/08 07:16:34;;;;;;;15.93;8.15;;;;;;;21.99;33.04;156917.37;1788840;80;21198;-83
2021/04/08 07:19:08;;;;;;;13.00;8.00;;;;;;;22.01;32.99;156921.33;1788620;80;21226;-84
2021/04/08 07:21:42;;;;;;;15.32;9.08;;;;;;;22.13;32.92;156954.47;1788627;80;21198;-83
2021/04/08 07:24:28;;;;;;;12.65;8.03;;;;;;;22.07;32.73;156937.25;1788577;80;21560;-83
2021/04/08 07:27:07;;;;;;;13.62;8.10;;;;;;;22.20;32.36;156972.98;1754335;80;21201;-83
2021/04/08 07:29:49;;;;;;;16.25;7.62;;;;;;;22.10;32.57;156946.50;1738592;82;21593;-83
2021/04/08 07:32:28;;;;;;;14.45;8.75;;;;;;;21.96;32.53;156909.42;1738489;82;21221;-83
2021/04/08 07:35:16;;;;;;;12.63;9.13;;;;;;;22.23;32.50;156980.94;1741356;82;21256;-84
2021/04/08 07:37:58;;;;;;;14.00;8.53;;;;;;;22.40;32.67;157025.98;1734774;82;21839;-83
2021/04/08 07:40:31;;;;;;;13.43;8.55;;;;;;;22.47;32.32;157044.56;1733815;82;21476;-84
2021/04/08 07:43:15;;;;;;;17.55;8.68;;;;;;;22.59;32.56;157076.34;1733569;82;21257;-85
2021/04/08 07:45:47;;;;;;;13.03;7.90;;;;;;;22.33;33.03;157006.16;1733565;82;21403;-85
2021/04/08 07:48:20;;;;;;;13.65;7.97;;;;;;;22.44;32.46;157035.30;1733674;82;21694;-84
2021/04/08 07:50:58;;;;;;;14.73;8.83;;;;;;;22.48;32.17;157047.22;1688377;82;21217;-85
2021/04/08 07:53:30;;;;;;;17.40;8.03;;;;;;;22.66;32.39;157094.88;1733648;82;21194;-85
2021/04/08 07:56:03;;;;;;;13.95;8.55;;;;;;;23.26;31.90;157255.22;1733731;82;21201;-85
2021/04/08 07:58:35;;;;;;;13.13;7.90;;;;;;;23.32;31.13;157269.86;1733774;82;21201;-85
2021/04/08 08:01:08;;;;;;;10.40;7.47;;;;;;;23.35;31.19;157279.13;1734289;82;21367;-86
2021/04/08 08:03:43;;;;;;;14.53;8.20;;;;;;;23.48;31.08;157313.59;1733961;82;21248;-84
2021/04/08 08:06:15;;;;;;;11.38;7.42;;;;;;;23.64;31.20;157355.97;1733740;82;21351;-84
2021/04/08 08:08:49;;;;;;;11.78;7.47;;;;;;;23.62;30.82;157349.36;1733848;82;21344;-84
2021/04/08 08:11:24;;;;;;;12.43;8.08;;;;;;;23.65;30.75;157357.33;1733850;82;21202;-85
2021/04/08 08:13:57;;;;;;;13.28;8.38;;;;;;;23.54;30.67;157329.47;1733934;82;21201;-84
2021/04/08 08:16:29;;;;;;;10.98;7.12;;;;;;;23.39;30.89;157288.39;1733841;82;21340;-84
2021/04/08 08:19:01;;;;;;;13.32;8.40;;;;;;;23.34;31.09;157276.47;1733825;82;21331;-84
2021/04/08 08:21:37;;;;;;;11.03;7.75;;;;;;;23.41;31.47;157295.00;1733763;82;21422;-84
2021/04/08 08:24:12;;;;;;;12.58;8.00;;;;;;;23.68;30.79;157366.59;1733659;82;21411;-85
2021/04/08 08:26:47;;;;;;;13.90;8.30;;;;;;;23.49;30.99;157314.89;1733759;82;21332;-85
2021/04/08 08:29:27;;;;;;;11.80;7.90;;;;;;;23.40;31.21;157291.05;1733943;82;21224;-85
2021/04/08 08:32:04;;;;;;;10.43;6.90;;;;;;;23.57;30.83;157337.44;1733755;82;21209;-85
2021/04/08 08:34:38;;;;;;;10.20;7.78;;;;;;;23.85;30.61;157413.06;1743202;82;21228;-86
2021/04/08 08:37:13;;;;;;;10.55;7.58;;;;;;;23.92;29.82;157430.30;1751953;82;21336;-86
2021/04/08 08:39:48;;;;;;;11.57;7.55;;;;;;;23.99;29.85;157448.84;1751924;82;21552;-85
2021/04/08 08:42:23;;;;;;;10.65;7.15;;;;;;;24.03;29.95;157460.77;1752069;82;21362;-87
2021/04/08 08:44:56;;;;;;;11.33;6.80;;;;;;;24.05;30.07;157466.08;1751979;82;21688;-87
2021/04/08 08:47:31;;;;;;;10.68;7.45;;;;;;;24.08;29.79;157474.06;1707802;82;21259;-87
2021/04/08 08:50:12;;;;;;;9.75;6.45;;;;;;;24.93;29.05;157700.94;1751938;82;21703;-87
2021/04/08 08:52:50;;;;;;;10.82;6.87;;;;;;;25.22;28.41;157776.64;1752346;82;21335;-87
2021/04/08 08:55:24;;;;;;;9.78;6.55;;;;;;;25.66;28.75;157894.81;1752116;80;21216;-87
2021/04/08 08:57:58;;;;;;;7.70;5.97;;;;;;;25.63;28.11;157886.83;1752014;82;21467;-88
2021/04/08 09:00:32;;;;;;;9.85;6.50;;;;;;;25.59;28.10;157876.19;1752156;82;21347;-88
2021/04/08 09:03:05;;;;;;;7.83;5.58;;;;;;;25.58;27.86;157873.53;1752073;82;21252;-87
2021/04/08 09:05:38;;;;;;;9.03;5.85;;;;;;;25.50;27.98;157852.31;1730962;82;21188;-87
2021/04/08 09:08:15;;;;;;;12.15;6.65;;;;;;;25.34;27.72;157809.86;1752071;82;21205;-88
2021/04/08 09:10:49;;;;;;;8.80;5.58;;;;;;;25.44;28.68;157835.05;1751400;81;21192;-88
2021/04/08 09:13:24;;;;;;;7.28;5.58;;;;;;;25.65;28.27;157893.45;1751870;82;21268;-86
2021/04/08 09:16:02;;;;;;;8.28;5.83;;;;;;;25.98;27.57;157979.84;1731053;82;21169;-82
2021/04/08 09:18:34;;;;;;;8.80;5.40;;;;;;;26.21;26.54;158040.94;1752962;82;22177;-85
2021/04/08 09:21:07;;;;;;;10.30;6.30;;;;;;;26.10;26.88;158011.72;1752123;82;21417;-85
2021/04/08 09:23:40;;;;;;;10.68;5.20;;;;;;;26.35;27.81;158078.16;1750326;79;21217;-86
2021/04/08 09:26:13;;;;;;;7.12;5.33;;;;;;;26.70;26.54;158173.88;1802252;79;21197;-86
2021/04/08 09:28:46;;;;;;;8.35;5.30;;;;;;;27.04;26.06;158264.30;1757696;79;22249;-86
2021/04/08 09:31:25;;;;;;;7.95;4.80;;;;;;;26.87;25.66;158217.72;1802192;79;21332;-84
2021/04/08 09:34:01;;;;;;;6.58;4.95;;;;;;;26.92;26.13;158232.34;1802416;79;21205;-83
2021/04/08 09:36:41;;;;;;;9.30;5.03;;;;;;;26.43;25.81;158099.44;1792511;79;21399;-84
2021/04/08 09:39:23;;;;;;;7.55;4.90;;;;;;;26.10;26.08;158011.72;1791209;80;21528;-84
2021/04/08 09:45:34;;;;;;;6.75;4.58;;;;;;;28.20;25.51;158572.86;1791191;80;21430;-79
2021/04/08 09:51:45;;;;;;;6.62;4.33;;;;;;;32.85;22.13;159819.37;1791173;80;21400;-77
2021/04/08 09:54:17;;;;;;;5.70;3.67;;;;;;;34.59;20.83;160288.47;1791234;80;21488;-80
2021/04/08 09:56:55;;;;;;;4.53;3.60;;;;;;;33.51;20.33;159997.03;1791282;80;21367;-80
2021/04/08 09:59:27;;;;;;;5.17;3.70;;;;;;;32.95;20.86;159847.44;1791350;80;21690;-80
2021/04/08 10:01:59;;;;;;;5.05;3.65;;;;;;;33.67;19.91;160039.84;1791351;80;21269;-80
2021/04/08 10:04:32;;;;;;;8.53;3.72;;;;;;;34.79;19.50;160341.92;1791293;80;21412;-85
2021/04/08 10:07:06;;;;;;;4.67;3.33;;;;;;;36.08;19.40;160688.44;1791338;80;21333;-73
2021/04/08 10:09:39;;;;;;;4.87;3.27;;;;;;;34.97;18.58;160388.72;1791270;80;21348;-83
2021/04/08 10:12:11;;;;;;;4.60;3.33;;;;;;;34.79;19.01;160341.92;1791344;80;21336;-75
2021/04/08 10:18:30;;;;;;;3.85;3.22;;;;;;;33.65;19.43;160035.81;1765225;81;21146;-77
2021/04/08 10:21:08;;;;;;;5.85;3.87;;;;;;;35.00;19.21;160398.06;1765515;81;21430;-77
2021/04/08 10:23:50;;;;;;;3.92;2.60;;;;;;;35.32;19.18;160483.67;1765204;81;21214;-75
2021/04/08 10:26:33;;;;;;;3.65;2.77;;;;;;;34.09;18.20;160153.41;1765208;81;21400;-75
2021/04/08 10:29:07;;;;;;;4.03;2.90;;;;;;;32.37;18.90;159692.56;1765022;81;21596;-77
2021/04/08 10:31:45;;;;;;;4.37;3.00;;;;;;;30.40;20.19;159164.27;1764927;81;22083;-74
2021/04/08 10:34:19;;;;;;;4.17;3.17;;;;;;;29.17;21.14;158833.80;1698091;83;21248;-73
2021/04/08 10:36:58;;;;;;;7.08;3.05;;;;;;;28.14;22.15;158556.88;1780993;79;21267;-78
2021/04/08 10:39:34;;;;;;;4.75;3.05;;;;;;;27.72;22.57;158446.47;1792154;80;21261;-79
2021/04/08 10:42:12;;;;;;;5.45;3.37;;;;;;;29.09;22.12;158811.20;1791135;80;21253;-82
2021/04/08 10:44:52;;;;;;;7.47;3.45;;;;;;;29.72;21.78;158981.67;1791378;80;22122;-79
2021/04/08 10:47:30;;;;;;;5.58;3.52;;;;;;;29.43;21.59;158904.45;1791414;80;21218;-81
2021/04/08 10:50:04;;;;;;;4.08;2.60;;;;;;;29.31;21.90;158871.08;1791912;80;21332;-81
2021/04/08 10:52:39;;;;;;;8.20;2.72;;;;;;;29.29;21.69;158865.75;1788591;79;22185;-81
2021/04/08 10:55:14;;;;;;;6.22;3.10;;;;;;;28.66;21.48;158696.64;1787305;80;21365;-75
2021/04/08 10:57:46;;;;;;;5.45;2.90;;;;;;;29.13;21.60;158821.81;1791490;80;21352;-80
2021/04/08 11:00:20;;;;;;;5.45;2.65;;;;;;;30.82;21.05;159274.94;1791143;80;21201;-78
2021/04/08 11:02:53;;;;;;;3.37;2.40;;;;;;;32.57;19.47;159744.61;1791312;80;21215;-77
2021/04/08 11:05:27;;;;;;;5.25;2.83;;;;;;;32.89;19.04;159830.08;1791436;80;21372;-79
2021/04/08 11:08:02;;;;;;;3.12;2.40;;;;;;;31.64;19.29;159496.39;1791167;80;21395;-81
2021/04/08 11:10:34;;;;;;;5.20;2.70;;;;;;;30.30;20.06;159134.95;1791159;80;21345;-80
2021/04/08 11:13:10;;;;;;;4.70;2.50;;;;;;;28.92;21.14;158767.28;1791112;80;21203;-83
2021/04/08 11:19:20;;;;;;;6.20;3.25;;;;;;;27.46;23.33;158374.64;1742724;80;21184;-83
2021/04/08 11:25:31;;;;;;;7.47;3.70;;;;;;;29.67;22.40;158967.03;1741121;82;21740;-84
2021/04/08 11:28:06;;;;;;;5.12;3.50;;;;;;;32.30;20.86;159673.84;1741387;82;21261;-85
2021/04/08 11:30:42;;;;;;;4.42;3.05;;;;;;;33.30;20.25;159942.27;1741335;82;21347;-85
2021/04/08 11:33:17;;;;;;;3.70;2.98;;;;;;;34.25;19.50;160196.19;1741444;82;21337;-84
2021/04/08 11:35:50;;;;;;;5.33;3.08;;;;;;;35.36;18.61;160495.70;1718120;82;21351;-84
2021/04/08 11:38:25;;;;;;;4.15;2.90;;;;;;;36.02;18.60;160672.41;1775354;80;21372;-84
2021/04/08 11:41:06;;;;;;;5.45;3.08;;;;;;;36.90;18.45;160909.39;1796596;79;21352;-84
2021/04/08 11:43:51;;;;;;;4.10;2.63;;;;;;;37.07;17.40;160956.25;1797720;79;21336;-85
2021/04/08 11:46:37;;;;;;;5.60;2.67;;;;;;;36.71;17.44;160857.13;1800037;79;21348;-85
2021/04/08 11:49:19;;;;;;;4.72;2.77;;;;;;;36.15;16.89;160707.19;1799891;79;21217;-85
2021/04/08 11:51:54;;;;;;;5.47;2.52;;;;;;;35.60;17.51;160558.64;1799913;79;21950;-84
2021/04/08 11:54:26;;;;;;;6.85;3.25;;;;;;;35.79;17.31;160609.45;1777345;79;21359;-83
2021/04/08 11:57:06;;;;;;;5.22;3.37;;;;;;;35.56;17.36;160549.28;1799746;79;21360;-84
2021/04/08 11:59:38;;;;;;;6.15;3.15;;;;;;;35.67;17.68;160577.34;1799707;79;21206;-83
2021/04/08 12:02:10;;;;;;;4.97;3.15;;;;;;;34.35;17.54;160224.27;1799904;79;21375;-82
2021/04/08 12:04:50;;;;;;;5.17;2.72;;;;;;;32.88;18.83;159828.72;1798942;79;21407;-79
2021/04/08 12:07:22;;;;;;;5.10;2.90;;;;;;;31.39;19.00;159429.66;1799073;79;21365;-79
2021/04/08 12:09:54;;;;;;;6.55;3.33;;;;;;;30.24;19.56;159118.94;1799023;79;21321;-79
2021/04/08 12:12:32;;;;;;;5.40;2.90;;;;;;;29.57;20.20;158940.39;1799172;79;21197;-79
2021/04/08 12:15:07;;;;;;;5.35;3.12;;;;;;;29.07;20.99;158807.17;1799029;79;21203;-79
2021/04/08 12:17:39;;;;;;;4.50;2.62;;;;;;;28.67;21.15;158699.31;1799007;79;21801;-79
2021/04/08 12:20:19;;;;;;;5.22;3.45;;;;;;;28.49;21.06;158652.72;1799014;79;22153;-79